Nearby METAR Reports

 

YAMB - Amberley, Australia
Distance from station: SSE 73km
Updated: 26/09/2022 12:00
Clear
Clear
 Wind from NW
Wind: NW 13 km/h
Temperature: 26°C
Dew Point: 11°C
Humidity: 39%
Barometer: 1015 hPa
Summary: Clear
Visibility: greater than 10 km
2022/09/26 02:00 YAMB 260200Z 31007KT 270V350 CAVOK 26/11 Q1015
YBBN - Brisbane Intl Ar, Australia
Distance from station: SE 74km
Updated: 26/09/2022 12:00
Few Clouds
Few Clouds
 Wind from NNE
Wind: NNE 19 km/h
Temperature: 25°C
Dew Point: 15°C
Humidity: 54%
Barometer: 1015 hPa
Clouds: Few Clouds
Visibility: 10 km
Cloud details: Few Clouds 1219 m
2022/09/26 02:00 YBBN 260200Z 03010KT 9999 FEW040 25/15 Q1015
 
YKRY - Kingaroy Arpt, Australia
Distance from station: NW 83km
Updated: 23/09/2022 05:21
NOT Current
Clear
Clear
 Wind from calm
Wind: Calm
Temperature: 10°C
Dew Point: 10°C
Humidity: 100%
Barometer: 1013 hPa
Clouds: Clear
Visibility: 10 km
2022/09/22 19:21 YKRY 221921Z AUTO 00000KT 9999 // NCD 10/10 Q1013
YBOK - Oakey (army/Civ), Australia
Distance from station: WSW 92km
Updated: 12/05/2022 10:00
NOT Current
Light rain, Overcast
Light rain, Overcast
 Wind from E
Wind: E 20 km/h
Temperature: 19°C
Dew Point: 18°C
Humidity: 94%
Barometer: 1018 hPa
Summary: Light rain
Clouds: Overcast
Visibility: 3 km
Cloud details: Mostly cloudy 244 m
Overcast 671 m
2022/05/12 00:00 YBOK 120000Z 09011KT 3000 -RA BKN008 OVC022 19/18 Q1018
 
YBCG - Coolangatta Aws, Australia
Distance from station: SE 162km
Updated: 26/09/2022 12:00
Partly cloudy
Partly cloudy
 Wind from NNE
Wind: NNE 19 km/h
Temperature: 23°C
Dew Point: 17°C
Humidity: 69%
Barometer: 1015 hPa
Clouds: Partly cloudy
Visibility: 10 km
Cloud details: Partly cloudy 1829 m
2022/09/26 02:00 YBCG 260200Z AUTO 02010KT 9999 // SCT060 23/17 Q1015 RF00.0/000.0
YCAS - Casino Airport, Australia
Distance from station: SSE 216km
Updated: 24/09/2022 17:14
NOT Current

 Wind from WSW
Wind: WSW 28 km/h
Temperature: 25°C
Dew Point: 12°C
Humidity: 44%
Barometer: 1008 hPa
2022/09/24 07:14 YCAS 240714Z AUTO 24015KT //// // ////// 25/12 Q1008
 
YLIS - Lismore Arpt, Australia
Distance from station: SSE 216km
Updated: 26/09/2022 07:00
NOT Current
Partly cloudy
Partly cloudy
 Wind from NNE
Wind: NNE 6 km/h
Temperature: 14°C
Dew Point: 14°C
Humidity: 100%
Barometer: 1017 hPa
Clouds: Partly cloudy
Visibility: 10 km
Cloud details: Partly cloudy 30 m
2022/09/25 21:00 YLIS 252100Z AUTO 03003KT 9999 // SCT001 14/14 Q1017
YBNA - Ballina Byron G., Australia
Distance from station: SSE 228km
Updated: 12/05/2022 10:00
NOT Current
Mostly cloudy
Mostly cloudy
 Wind from ENE
Wind: ENE 28 km/h
Temperature: 23°C
Dew Point: 17°C
Humidity: 69%
Barometer: 1020 hPa
Clouds: Mostly cloudy
Visibility: 10 km
Cloud details: Partly cloudy 945 m
Mostly cloudy 1158 m
Mostly cloudy 1494 m
2022/05/12 00:00 YBNA 120000Z AUTO 07015KT 9999 // SCT031 BKN038 BKN049 23/17 Q1020
 
YBUD - Bundaberg, Australia
Distance from station: N 235km
Updated: 23/09/2022 05:08
NOT Current
Partly cloudy
Partly cloudy
 Wind from SSW
Wind: SSW 7 km/h
Temperature: 17°C
Dew Point: 17°C
Humidity: 100%
Barometer: 1011 hPa
Clouds: Partly cloudy
Visibility: 10 km
Cloud details: Partly cloudy 183 m
2022/09/22 19:08 YBUD 221908Z AUTO 20004KT 9999 // SCT006 17/17 Q1011
YGFN - Grafton Arpt, Australia
Distance from station: S 311km
Updated: 25/09/2022 07:09
NOT Current
Partly cloudy
Partly cloudy
 Wind from SSW
Wind: SSW 6 km/h
Temperature: 13°C
Dew Point: 13°C
Humidity: 100%
Barometer: 1016 hPa
Clouds: Partly cloudy
Visibility: 10 km
Cloud details: Partly cloudy 61 m
2022/09/24 21:09 YGFN 242109Z AUTO 20003KT 9999 // SCT002 13/13 Q1016
 
YGLA - Gladstone, Australia
Distance from station: NNW 372km
Updated: 26/09/2022 12:00
Partly cloudy
Partly cloudy
 Wind from NNE
Wind: NNE 19 km/h
Temperature: 25°C
Dew Point: 17°C
Humidity: 61%
Barometer: 1015 hPa
Clouds: Partly cloudy
Visibility: 10 km
Cloud details: Partly cloudy 853 m
2022/09/26 02:00 YGLA 260200Z AUTO 02010KT 9999 // SCT028 25/17 Q1015 RF00.0/000.0
YCFS - Coffs Harbour, Australia
Distance from station: S 373km
Updated: 26/09/2022 12:00
Clear
Clear
 Wind from NE
Wind: NE 19 km/h
Temperature: 21°C
Dew Point: 15°C
Humidity: 69%
Barometer: 1015 hPa
Clouds: Clear
Visibility: 10 km
2022/09/26 02:00 YCFS 260200Z AUTO 04010KT 9999 // NCD 21/15 Q1015 RF00.0/000.0
 
YMOR - Moree Arpt, Australia
Distance from station: SW 381km
Updated: 24/09/2022 14:08
NOT Current
Mostly cloudy
Mostly cloudy
 Wind from W
Wind: W 28 km/h, Gust: 50 km/h
Temperature: 22°C
Dew Point: 12°C
Humidity: 53%
Barometer: 1012 hPa
Clouds: Mostly cloudy
Visibility: 10 km
Cloud details: Partly cloudy 1341 m
Mostly cloudy 2835 m
2022/09/24 04:08 YMOR 240408Z AUTO 26015G27KT 9999 // SCT044 BKN093 22/12 Q1012
YNBR - Narrabri, Australia
Distance from station: SW 452km
Updated: 24/09/2022 08:34
NOT Current
Mostly cloudy
Mostly cloudy
 Wind from NNW
Wind: NNW 6 km/h
Temperature: 17°C
Dew Point: 14°C
Humidity: 83%
Barometer: 1014 hPa
Clouds: Mostly cloudy
Visibility: 10 km
Cloud details: Partly cloudy 61 m
Partly cloudy 1128 m
Mostly cloudy 2926 m
2022/09/23 22:34 YNBR 232234Z AUTO 33003KT 9999 // SCT002 SCT037 BKN096 17/14 Q1014
 
YBRK - Rockhampton Airp, Australia
Distance from station: NNW 454km
Updated: 26/09/2022 12:00
Mostly cloudy
Mostly cloudy
 Wind from ESE
Wind: ESE 13 km/h
Temperature: 27°C
Heat Index: 28°C
Dew Point: 17°C
Humidity: 54%
Barometer: 1015 hPa
Clouds: Mostly cloudy
Visibility: 10 km
Cloud details: Mostly cloudy 1067 m
2022/09/26 02:00 YBRK 260200Z 12007KT 9999 BKN035 27/17 Q1015
YSTW - Tamworth Airport, Australia
Distance from station: SSW 480km
Updated: 26/09/2022 12:00
Clear
Clear
 Wind from N
Wind: N 9 km/h
Temperature: 19°C
Dew Point: 8°C
Humidity: 49%
Barometer: 1017 hPa
Clouds: Clear
Visibility: 10 km
2022/09/26 02:00 YSTW 260200Z AUTO 35005KT 280V020 9999 // NCD 19/08 Q1017 RF00.0/000.0
 
YPMQ - Port Macquarie, Australia
Distance from station: S 494km
Updated: 26/09/2022 02:05
NOT Current
Clear
Clear
 Wind from WNW
Wind: WNW 6 km/h
Temperature: 12°C
Dew Point: 12°C
Humidity: 100%
Barometer: 1017 hPa
Clouds: Clear
Visibility: 10 km
2022/09/25 16:05 YPMQ 251605Z AUTO 30003KT 9999 // NCD 12/12 Q1017